createdAt,value
2019-02-11T06:25:58.679Z,981.04
2019-02-11T06:27:01.217Z,981.07
2019-02-11T06:27:57.420Z,981.06
2019-02-11T06:29:00.172Z,981.09
2019-02-11T06:30:00.624Z,981.13
2019-02-11T06:30:59.681Z,981.16
2019-02-11T06:31:59.677Z,981.22
2019-02-11T06:32:58.580Z,981.22
2019-02-11T06:34:04.135Z,981.25
2019-02-11T06:34:58.596Z,981.27
2019-02-11T06:35:58.807Z,981.32
2019-02-11T06:36:59.019Z,981.35
2019-02-11T06:38:00.627Z,981.36
2019-02-11T06:38:59.348Z,981.42
2019-02-11T06:40:00.222Z,981.41
2019-02-11T06:41:01.761Z,981.43
2019-02-11T06:42:01.627Z,981.42
2019-02-11T06:43:01.635Z,981.49
2019-02-11T06:44:07.178Z,981.54
2019-02-11T06:45:03.062Z,981.56
2019-02-11T06:46:02.559Z,981.62
2019-02-11T06:47:04.136Z,981.65
2019-02-11T06:48:00.848Z,981.71
2019-02-11T06:49:02.127Z,981.72
2019-02-11T06:50:02.251Z,981.73
2019-02-11T06:51:01.379Z,981.70
2019-02-11T06:52:01.560Z,981.81
2019-02-11T06:53:02.197Z,981.81
2019-02-11T06:54:05.787Z,981.84
2019-02-11T06:55:03.685Z,981.92
2019-02-11T06:56:04.216Z,981.94
2019-02-11T06:57:05.152Z,981.99
2019-02-11T06:58:03.622Z,981.97
2019-02-11T06:59:04.705Z,982.07
2019-02-11T07:00:04.120Z,982.02
2019-02-11T07:01:05.636Z,982.05
2019-02-11T07:02:05.187Z,982.03
2019-02-11T07:03:05.190Z,982.08
2019-02-11T07:04:03.775Z,982.11
2019-02-11T07:05:06.124Z,982.10
2019-02-11T07:06:06.385Z,982.13
2019-02-11T07:07:12.179Z,982.16
2019-02-11T07:08:07.891Z,982.19
2019-02-11T07:09:06.176Z,982.20
2019-02-11T07:10:07.629Z,982.16
2019-02-11T07:11:08.632Z,982.11
2019-02-11T07:12:05.500Z,982.19
2019-02-11T07:13:05.243Z,982.24
2019-02-11T07:14:08.807Z,982.16
2019-02-11T07:15:09.172Z,982.27
2019-02-11T07:16:06.141Z,982.25
2019-02-11T07:17:07.689Z,982.24
2019-02-11T07:18:06.183Z,982.25
2019-02-11T07:19:12.123Z,982.25
2019-02-11T07:20:09.153Z,982.30
2019-02-11T07:21:08.177Z,982.34
2019-02-11T07:22:06.757Z,982.39
2019-02-11T07:23:07.827Z,982.40
2019-02-11T07:24:07.091Z,982.48
2019-02-11T07:25:11.128Z,982.46
2019-02-11T07:26:13.047Z,982.45
2019-02-11T07:27:08.060Z,982.44
2019-02-11T07:28:07.839Z,982.43
2019-02-11T07:29:23.675Z,982.47
2019-02-11T07:30:12.184Z,982.51
2019-02-11T07:31:08.383Z,982.53
2019-02-11T07:32:08.600Z,982.59
2019-02-11T07:33:08.794Z,982.58
2019-02-11T07:34:15.130Z,982.62
2019-02-11T07:35:11.176Z,982.67
2019-02-11T07:36:11.173Z,982.65
2019-02-11T07:37:25.201Z,982.75
2019-02-11T07:38:11.412Z,982.76
2019-02-11T07:39:11.625Z,982.80
2019-02-11T07:40:12.347Z,982.78
2019-02-11T07:41:14.710Z,982.84
2019-02-11T07:42:14.127Z,982.87
2019-02-11T07:43:13.127Z,982.84
2019-02-11T07:44:11.965Z,982.88
2019-02-11T07:45:11.357Z,982.90
2019-02-11T07:46:16.628Z,982.89
2019-02-11T07:47:12.907Z,982.95
2019-02-11T07:48:13.736Z,982.92
2019-02-11T07:49:29.128Z,982.92
2019-02-11T07:50:13.174Z,982.94
2019-02-11T07:51:15.179Z,982.99
2019-02-11T07:52:15.634Z,982.94
2019-02-11T07:53:13.681Z,983.02
2019-02-11T07:54:20.178Z,983.00
2019-02-11T07:55:12.378Z,983.08
2019-02-11T07:56:12.577Z,983.08
2019-02-11T07:57:14.410Z,983.15
2019-02-11T07:58:19.682Z,983.10
2019-02-11T07:59:15.448Z,983.19
2019-02-11T08:00:15.210Z,983.22
2019-02-11T08:01:20.786Z,983.24
2019-02-11T08:02:16.627Z,983.26
2019-02-11T08:03:13.846Z,983.26
2019-02-11T08:04:21.833Z,983.23
2019-02-11T08:05:16.224Z,983.30
2019-02-11T08:06:16.930Z,983.26
2019-02-11T08:07:14.468Z,983.29
2019-02-11T08:08:14.671Z,983.29
2019-02-11T08:09:18.677Z,983.27
2019-02-11T08:10:18.137Z,983.34
2019-02-11T08:11:22.180Z,983.40
2019-02-11T08:12:19.175Z,983.43
2019-02-11T08:13:17.709Z,983.49
2019-02-11T08:14:20.640Z,983.49
2019-02-11T08:15:18.225Z,983.40
2019-02-11T08:16:16.630Z,983.50
2019-02-11T08:17:18.175Z,983.53
2019-02-11T08:18:20.173Z,983.49
2019-02-11T08:19:21.169Z,983.59
2019-02-11T08:20:20.673Z,983.57
2019-02-11T08:21:19.663Z,983.57
2019-02-11T08:22:18.000Z,983.55
2019-02-11T08:23:20.191Z,983.65
2019-02-11T08:24:17.383Z,983.66
2019-02-11T08:25:18.644Z,983.74
2019-02-11T08:26:19.130Z,983.73
2019-02-11T08:27:17.857Z,983.76
2019-02-11T08:28:19.622Z,983.78
2019-02-11T08:29:22.128Z,983.82
2019-02-11T08:30:22.175Z,983.85
2019-02-11T08:31:19.458Z,983.84
2019-02-11T08:32:21.205Z,983.95
2019-02-11T08:33:19.018Z,983.90
2019-02-11T08:34:22.674Z,984.05
2019-02-11T08:35:21.628Z,983.99
2019-02-11T08:36:22.143Z,984.10
2019-02-11T08:37:22.131Z,984.11
2019-02-11T08:38:21.137Z,984.20
2019-02-11T08:39:23.674Z,984.40
2019-02-11T08:40:35.675Z,984.44
2019-02-11T08:41:23.137Z,984.08
2019-02-11T08:42:25.135Z,984.18
2019-02-11T08:43:20.353Z,984.24
2019-02-11T08:44:20.565Z,984.17
2019-02-11T08:45:20.767Z,984.57
2019-02-11T08:46:21.916Z,984.62
2019-02-11T08:47:22.676Z,984.67
2019-02-11T08:48:22.260Z,984.72
2019-02-11T08:49:42.364Z,984.80
2019-02-11T08:50:22.173Z,984.62
2019-02-11T08:51:23.676Z,984.63
2019-02-11T08:52:24.020Z,984.49
2019-02-11T08:53:22.131Z,985.00
2019-02-11T08:54:22.582Z,984.56
2019-02-11T08:55:22.506Z,984.47
2019-02-11T08:56:24.690Z,984.35
2019-02-11T08:57:24.716Z,984.35
2019-02-11T08:58:27.227Z,984.36
2019-02-11T08:59:27.345Z,984.36
2019-02-11T09:00:23.436Z,984.38
2019-02-11T09:01:31.851Z,984.44
2019-02-11T09:02:24.671Z,984.40
2019-02-11T09:03:24.024Z,984.45
2019-02-11T09:04:24.249Z,984.45
2019-02-11T09:05:25.018Z,984.51
2019-02-11T09:06:26.631Z,984.58
2019-02-11T09:07:32.815Z,984.53
2019-02-11T09:08:25.044Z,984.53
2019-02-11T09:09:26.069Z,984.60
2019-02-11T09:10:27.176Z,984.62
2019-02-11T09:11:28.146Z,984.59
2019-02-11T09:12:25.755Z,984.63
2019-02-11T09:13:25.948Z,984.61
2019-02-11T09:14:30.909Z,984.62
2019-02-11T09:15:29.632Z,984.61
2019-02-11T09:16:30.187Z,984.65
2019-02-11T09:17:29.671Z,984.65
2019-02-11T09:18:27.156Z,984.62
2019-02-11T09:19:40.066Z,984.70
2019-02-11T09:20:34.952Z,984.67
2019-02-11T09:21:29.844Z,984.68
2019-02-11T09:22:32.630Z,984.72
2019-02-11T09:23:29.683Z,984.80
2019-02-11T09:24:29.688Z,984.79
2019-02-11T09:25:31.644Z,984.85
2019-02-11T09:26:33.420Z,984.87
2019-02-11T09:27:31.694Z,984.88
2019-02-11T09:28:44.687Z,984.95
2019-02-11T09:29:38.136Z,985.00
2019-02-11T09:30:32.199Z,984.97
2019-02-11T09:31:33.178Z,984.95
2019-02-11T09:32:34.319Z,984.95
2019-02-11T09:33:32.026Z,985.01
2019-02-11T09:34:29.959Z,985.03
2019-02-11T09:35:31.985Z,984.97
2019-02-11T09:36:31.991Z,985.02
2019-02-11T09:37:34.182Z,985.00
2019-02-11T09:38:32.177Z,984.94
2019-02-11T09:39:34.134Z,984.99
2019-02-11T09:40:30.996Z,985.00
2019-02-11T09:41:32.301Z,985.00
2019-02-11T09:42:31.320Z,985.04
2019-02-11T09:43:35.215Z,985.11
2019-02-11T09:44:33.698Z,985.06
2019-02-11T09:45:31.906Z,985.09
2019-02-11T09:46:39.946Z,985.09
2019-02-11T09:47:36.128Z,985.16
2019-02-11T09:48:40.185Z,985.12
2019-02-11T09:49:34.180Z,985.16
2019-02-11T09:50:40.680Z,985.15
2019-02-11T09:51:36.680Z,985.13
2019-02-11T09:52:35.626Z,985.18
2019-02-11T09:53:35.190Z,985.18
2019-02-11T09:54:33.516Z,985.24
2019-02-11T09:55:35.678Z,985.23
2019-02-11T09:56:42.165Z,985.26
2019-02-11T09:57:37.359Z,985.28
2019-02-11T09:58:38.067Z,985.33
2019-02-11T09:59:38.295Z,985.38
2019-02-11T10:00:35.127Z,985.42
2019-02-11T10:01:38.179Z,985.47
2019-02-11T10:02:37.167Z,985.44
2019-02-11T10:03:34.745Z,985.47
2019-02-11T10:04:35.263Z,985.46
2019-02-11T10:06:11.720Z,985.56
2019-02-11T10:06:37.192Z,985.55
2019-02-11T10:07:35.996Z,985.56
2019-02-11T10:08:38.146Z,985.54
2019-02-11T10:09:37.684Z,985.58
2019-02-11T10:10:37.682Z,985.50
2019-02-11T10:11:37.150Z,985.57
2019-02-11T10:12:41.047Z,985.52
2019-02-11T10:13:36.474Z,985.57
2019-02-11T10:14:39.669Z,985.61
2019-02-11T10:15:36.889Z,985.64
2019-02-11T10:16:59.682Z,985.62
2019-02-11T10:17:39.635Z,985.69
2019-02-11T10:18:59.633Z,985.73
2019-02-11T10:19:37.459Z,985.70
2019-02-11T10:20:39.772Z,985.70
2019-02-11T10:21:41.680Z,985.74
2019-02-11T10:22:41.425Z,985.75
2019-02-11T10:23:40.667Z,985.78
2019-02-11T10:24:46.967Z,985.76
2019-02-11T10:25:38.458Z,985.83
2019-02-11T10:26:40.184Z,985.82
2019-02-11T10:27:40.946Z,985.83
2019-02-11T10:28:42.690Z,985.90
2019-02-11T10:29:43.645Z,985.92
2019-02-11T10:30:47.180Z,985.94
2019-02-11T10:31:43.534Z,985.95
2019-02-11T10:32:55.196Z,985.96
2019-02-11T10:33:40.278Z,985.94
2019-02-11T10:34:39.975Z,986.00
2019-02-11T10:35:42.547Z,985.98
2019-02-11T10:36:42.637Z,986.00
2019-02-11T10:37:42.630Z,986.03
2019-02-11T10:38:40.800Z,986.01
2019-02-11T10:39:43.127Z,986.11
2019-02-11T10:40:43.186Z,986.13
2019-02-11T10:41:41.410Z,986.06
2019-02-11T10:42:41.615Z,986.12
2019-02-11T10:43:44.334Z,986.11
2019-02-11T10:44:51.637Z,986.16
2019-02-11T10:45:43.126Z,986.15
2019-02-11T10:46:47.144Z,986.19
2019-02-11T10:47:44.185Z,986.20
2019-02-11T10:48:46.181Z,986.24
2019-02-11T10:49:44.688Z,986.26
2019-02-11T10:50:42.883Z,986.26
2019-02-11T10:51:45.107Z,986.26
2019-02-11T10:52:45.181Z,986.28
2019-02-11T10:53:43.387Z,986.30
2019-02-11T10:54:45.182Z,986.24
2019-02-11T10:55:48.308Z,986.21
2019-02-11T10:56:47.681Z,986.23
2019-02-11T10:57:44.130Z,986.26
2019-02-11T10:58:44.343Z,986.26
2019-02-11T10:59:46.179Z,986.22
2019-02-11T11:00:45.644Z,986.25
2019-02-11T11:01:46.814Z,986.24
2019-02-11T11:02:47.182Z,986.28
2019-02-11T11:03:45.433Z,986.28
2019-02-11T11:04:47.449Z,986.32
2019-02-11T11:05:48.280Z,986.29
2019-02-11T11:06:50.136Z,986.31
2019-02-11T11:07:46.110Z,986.24
2019-02-11T11:08:46.309Z,986.29
2019-02-11T11:09:49.129Z,986.26
2019-02-11T11:10:56.637Z,986.28
2019-02-11T11:11:48.680Z,986.35
2019-02-11T11:12:48.684Z,986.34
2019-02-11T11:13:48.186Z,986.37
2019-02-11T11:14:54.141Z,986.36
2019-02-11T11:18:12.748Z,986.41
2019-02-11T11:19:17.320Z,986.36
2019-02-11T11:20:13.278Z,986.38
2019-02-11T11:21:13.267Z,986.36
2019-02-11T11:22:11.868Z,986.39
2019-02-11T11:23:15.118Z,986.39
2019-02-11T11:24:12.075Z,986.42
2019-02-11T11:25:14.247Z,986.45
2019-02-11T11:26:12.459Z,986.46
2019-02-11T11:27:14.258Z,986.40
2019-02-11T11:28:19.770Z,986.50
2019-02-11T11:29:13.007Z,986.49
2019-02-11T11:30:16.809Z,986.54
2019-02-11T11:31:19.215Z,986.55
2019-02-11T11:32:17.293Z,986.53
2019-02-11T11:33:13.574Z,986.65
2019-02-11T11:34:13.707Z,986.58
2019-02-11T11:35:17.748Z,986.66
2019-02-11T11:36:17.757Z,987.14
2019-02-11T11:37:15.097Z,987.15
2019-02-11T11:38:14.313Z,986.74
2019-02-11T11:39:14.534Z,987.07
2019-02-11T11:40:15.758Z,986.81
2019-02-11T11:41:16.762Z,986.71
2019-02-11T11:42:16.775Z,987.13
2019-02-11T11:43:16.751Z,987.24
2019-02-11T11:44:15.459Z,986.85
2019-02-11T11:45:15.660Z,986.91
2019-02-11T11:46:15.872Z,987.47
2019-02-11T11:47:16.083Z,987.21
2019-02-11T11:48:17.317Z,986.88
2019-02-11T11:49:16.574Z,986.89
2019-02-11T11:50:18.259Z,986.86
2019-02-11T11:51:16.875Z,986.86
2019-02-11T11:52:18.757Z,986.86
2019-02-11T11:53:18.831Z,986.84
2019-02-11T11:54:17.339Z,986.86
2019-02-11T11:55:17.574Z,986.89
2019-02-11T11:56:17.719Z,986.84
2019-02-11T11:57:19.761Z,986.84
2019-02-11T11:58:19.808Z,986.95
2019-02-11T11:59:18.243Z,986.97
2019-02-11T12:00:20.252Z,987.03
2019-02-11T12:01:19.630Z,986.98
2019-02-11T12:02:18.704Z,986.97
2019-02-11T12:03:18.891Z,986.96
2019-02-11T12:04:20.758Z,987.06
2019-02-11T12:05:19.284Z,987.10
2019-02-11T12:06:19.465Z,987.02
2019-02-11T12:07:22.284Z,987.13
2019-02-11T12:08:21.782Z,987.10
2019-02-11T12:09:19.992Z,987.16
2019-02-11T12:10:23.758Z,987.17
2019-02-11T12:11:22.337Z,987.20
2019-02-11T12:12:43.307Z,987.25
2019-02-11T12:13:23.320Z,987.18
2019-02-11T12:14:21.723Z,987.22
2019-02-11T12:15:22.711Z,987.31
2019-02-11T12:16:21.321Z,987.33
2019-02-11T12:17:24.210Z,987.36
2019-02-11T12:18:25.264Z,987.41
2019-02-11T12:19:22.736Z,987.47
2019-02-11T12:20:25.000Z,987.51
2019-02-11T12:21:25.216Z,987.49
2019-02-11T12:22:24.253Z,987.60
2019-02-11T12:23:28.276Z,987.45
2019-02-11T12:24:38.335Z,987.55
2019-02-11T12:25:27.507Z,987.56
2019-02-11T12:26:24.841Z,987.60
2019-02-11T12:27:26.787Z,987.58
2019-02-11T12:28:23.473Z,987.63
2019-02-11T12:29:25.270Z,987.57
2019-02-11T12:30:28.548Z,987.65
2019-02-11T12:31:24.031Z,987.75
2019-02-11T12:32:31.762Z,987.63
2019-02-11T12:33:24.247Z,987.65
2019-02-11T12:34:24.331Z,987.64
2019-02-11T12:35:25.589Z,987.64
2019-02-11T12:36:31.724Z,987.61
2019-02-11T12:37:26.754Z,987.64
2019-02-11T12:38:32.764Z,987.69
2019-02-11T12:39:27.267Z,987.71
2019-02-11T12:40:27.291Z,987.71
2019-02-11T12:41:28.223Z,987.66
2019-02-11T12:42:27.793Z,987.76
2019-02-11T12:43:41.813Z,987.76
2019-02-11T12:44:26.243Z,987.83
2019-02-11T12:45:26.420Z,987.76
2019-02-11T12:46:30.266Z,987.80
2019-02-11T12:47:26.847Z,987.82
2019-02-11T12:48:30.427Z,987.82
2019-02-11T12:49:34.779Z,987.87
2019-02-11T12:50:54.357Z,987.81
2019-02-11T12:51:31.261Z,987.90
2019-02-11T12:52:30.207Z,987.94
2019-02-11T12:53:30.812Z,987.96
2019-02-11T12:54:30.717Z,987.95
2019-02-11T12:55:56.819Z,987.93
2019-02-11T12:56:31.223Z,987.95
2019-02-11T12:57:32.283Z,987.96
2019-02-11T12:58:49.794Z,987.95
2019-02-11T12:59:32.797Z,988.03
2019-02-11T13:00:30.136Z,988.04
2019-02-11T13:01:31.238Z,988.05
2019-02-11T13:02:29.534Z,988.04
2019-02-11T13:03:35.275Z,988.00
2019-02-11T13:04:32.211Z,988.04
2019-02-11T13:05:45.077Z,988.04
2019-02-11T13:06:32.330Z,988.08
2019-02-11T13:07:32.256Z,988.12
2019-02-11T13:08:36.252Z,988.13
2019-02-11T13:09:34.261Z,988.16
2019-02-11T13:10:32.835Z,988.17
2019-02-11T13:11:31.064Z,988.13
2019-02-11T13:12:55.230Z,988.19
2019-02-11T13:13:32.435Z,988.14
2019-02-11T13:14:33.215Z,988.19
2019-02-11T13:15:57.557Z,988.23
2019-02-11T13:16:36.917Z,988.26
2019-02-11T13:17:34.582Z,988.26
2019-02-11T13:18:38.762Z,988.29
2019-02-11T13:19:32.437Z,988.25
2019-02-11T13:20:34.270Z,988.30
2019-02-11T13:22:01.767Z,988.28
2019-02-11T13:22:36.802Z,988.38
2019-02-11T13:23:36.774Z,988.35
2019-02-11T13:24:37.271Z,988.35
2019-02-11T13:25:33.737Z,988.35
2019-02-11T13:26:33.778Z,988.38
2019-02-11T13:27:35.777Z,988.38
2019-02-11T13:28:34.019Z,988.41
2019-02-11T13:29:49.792Z,988.37
2019-02-11T13:30:36.291Z,988.37
2019-02-11T13:31:35.542Z,988.44
2019-02-11T13:32:42.269Z,988.47
2019-02-11T13:33:41.838Z,988.51
2019-02-11T13:34:38.779Z,988.55
2019-02-11T13:35:51.309Z,988.58
2019-02-11T13:36:58.283Z,988.57
2019-02-11T13:38:08.365Z,988.60
2019-02-11T13:38:36.756Z,988.60
2019-02-11T13:39:36.165Z,988.60
2019-02-11T13:40:38.693Z,988.64
2019-02-11T13:41:37.617Z,988.97
2019-02-11T13:42:40.290Z,988.71
2019-02-11T13:43:38.503Z,988.78
2019-02-11T13:44:37.209Z,988.72
2019-02-11T13:45:38.803Z,988.80
2019-02-11T13:46:39.828Z,988.79
2019-02-11T13:47:52.231Z,988.91
2019-02-11T13:48:39.301Z,988.98
2019-02-11T13:49:53.307Z,988.99
2019-02-11T13:50:39.792Z,988.99
2019-02-11T13:51:38.068Z,989.00
2019-02-11T13:52:42.730Z,988.96
2019-02-11T13:53:49.456Z,989.06
2019-02-11T13:54:38.537Z,989.06
2019-02-11T13:55:41.225Z,989.08
2019-02-11T13:56:45.779Z,989.10
2019-02-11T13:57:46.800Z,989.09
2019-02-11T13:58:39.220Z,989.13
2019-02-11T13:59:40.446Z,989.05
2019-02-11T14:00:39.681Z,989.09
2019-02-11T14:01:40.804Z,989.13
2019-02-11T14:02:47.769Z,989.18
2019-02-11T14:03:41.841Z,989.11
2019-02-11T14:04:41.173Z,989.14
2019-02-11T14:05:42.257Z,989.09
2019-02-11T14:06:45.214Z,989.06
2019-02-11T14:07:44.492Z,989.14
2019-02-11T14:08:42.766Z,989.05
2019-02-11T14:09:44.801Z,989.04
2019-02-11T14:10:41.282Z,989.16
2019-02-11T14:11:47.324Z,989.21
2019-02-11T14:12:43.400Z,989.27
2019-02-11T14:14:01.444Z,989.30
2019-02-11T14:14:44.713Z,989.36
2019-02-11T14:15:43.779Z,989.40
2019-02-11T14:16:51.238Z,989.43
2019-02-11T14:18:10.519Z,989.49
2019-02-11T14:18:44.227Z,989.58
2019-02-11T14:19:42.882Z,989.68
2019-02-11T14:20:49.485Z,989.91
2019-02-11T14:21:49.788Z,989.88
2019-02-11T14:23:08.306Z,990.05
2019-02-11T14:23:44.478Z,990.08
2019-02-11T14:24:45.264Z,990.18
2019-02-11T14:25:48.723Z,990.17
2019-02-11T14:26:50.791Z,990.14
2019-02-11T14:27:59.785Z,990.12
2019-02-11T14:28:44.470Z,990.24
2019-02-11T14:29:46.777Z,990.21
2019-02-11T14:30:47.730Z,990.18
2019-02-11T14:31:46.818Z,990.21
2019-02-11T14:32:47.768Z,990.15
2019-02-11T14:33:45.336Z,990.23
2019-02-11T14:34:46.574Z,990.20
2019-02-11T14:35:50.219Z,990.20
2019-02-11T14:36:47.862Z,990.31
2019-02-11T14:37:47.733Z,990.31
2019-02-11T14:38:49.722Z,990.33
2019-02-11T14:39:51.576Z,990.31
2019-02-11T14:40:50.281Z,990.31
2019-02-11T14:41:46.718Z,990.32
2019-02-11T14:42:49.762Z,990.29
2019-02-11T14:43:48.763Z,990.28
2019-02-11T14:44:48.951Z,990.35
2019-02-11T14:45:55.917Z,990.34
2019-02-11T14:46:48.586Z,990.30
2019-02-11T14:48:25.941Z,990.31
2019-02-11T14:48:51.262Z,990.35
2019-02-11T14:49:54.057Z,990.35
2019-02-11T14:50:54.233Z,990.43
2019-02-11T14:51:50.276Z,990.44
2019-02-11T14:52:50.262Z,990.44
2019-02-11T14:53:51.216Z,990.38
2019-02-11T14:54:49.716Z,990.38
2019-02-11T14:56:00.777Z,990.38
2019-02-11T14:56:54.248Z,990.41
2019-02-11T14:57:50.492Z,990.41
2019-02-11T14:58:51.275Z,990.41
2019-02-11T14:59:50.711Z,990.48
2019-02-11T15:00:55.834Z,990.48
2019-02-11T15:01:52.656Z,990.61
2019-02-11T15:02:51.778Z,990.68
2019-02-11T15:03:54.257Z,990.64
2019-02-11T15:04:50.642Z,990.57
2019-02-11T15:05:52.751Z,990.63
2019-02-11T15:06:52.727Z,990.74
2019-02-11T15:07:52.796Z,990.76
2019-02-11T15:08:53.315Z,990.82
2019-02-11T15:09:55.224Z,990.79
2019-02-11T15:10:53.783Z,990.79
2019-02-11T15:11:51.984Z,990.84
2019-02-11T15:12:53.756Z,990.76
2019-02-11T15:13:54.319Z,990.80
2019-02-11T15:14:54.261Z,990.77
2019-02-11T15:15:52.758Z,990.76
2019-02-11T15:16:56.793Z,990.75
2019-02-11T15:17:54.770Z,990.79
2019-02-11T15:18:53.217Z,990.82
2019-02-11T15:19:55.263Z,990.81
2019-02-11T15:20:56.291Z,990.89
2019-02-11T15:21:53.752Z,990.95
2019-02-11T15:23:04.936Z,990.91
2019-02-11T15:23:54.762Z,990.93
2019-02-11T15:24:57.314Z,990.98
2019-02-11T15:25:54.552Z,990.99
2019-02-11T15:26:54.634Z,991.05
2019-02-11T15:27:54.909Z,991.06
2019-02-11T15:28:56.756Z,991.05
2019-02-11T15:29:55.268Z,991.16
2019-02-11T15:30:55.465Z,991.12
2019-02-11T15:31:57.294Z,991.15
2019-02-11T15:32:56.816Z,991.11
2019-02-11T15:33:56.719Z,991.12
2019-02-11T15:35:02.769Z,991.11
2019-02-11T15:35:57.760Z,991.07
2019-02-11T15:36:58.281Z,991.15
2019-02-11T15:37:56.546Z,991.12
2019-02-11T15:38:56.626Z,991.17
2019-02-11T15:39:57.871Z,991.13
2019-02-11T15:40:58.776Z,991.20
2019-02-11T15:41:58.104Z,991.15
2019-02-11T15:42:57.324Z,991.22
2019-02-11T15:43:57.535Z,991.19
2019-02-11T15:45:04.310Z,991.17
2019-02-11T15:45:59.760Z,991.19
2019-02-11T15:46:59.756Z,991.22
2019-02-11T15:47:59.232Z,991.18
2019-02-11T15:49:02.258Z,991.18
2019-02-11T15:49:58.480Z,991.27
2019-02-11T15:51:01.309Z,991.22
2019-02-11T15:51:58.929Z,991.22
2019-02-11T15:53:06.757Z,991.23
2019-02-11T15:54:03.717Z,991.29
2019-02-11T15:55:01.266Z,991.31
2019-02-11T15:56:07.461Z,991.34
2019-02-11T15:57:03.763Z,991.36
2019-02-11T15:58:02.811Z,991.36
2019-02-11T15:59:03.766Z,991.34
2019-02-11T16:00:16.265Z,991.39
2019-02-11T16:01:03.283Z,991.43
2019-02-11T16:02:00.675Z,991.40
2019-02-11T16:03:12.866Z,991.43
2019-02-11T16:04:02.774Z,991.48
2019-02-11T16:05:05.709Z,991.43
2019-02-11T16:06:10.090Z,991.43
2019-02-11T16:07:03.323Z,991.45
2019-02-11T16:08:02.858Z,991.51
2019-02-11T16:09:04.872Z,991.53
2019-02-11T16:10:25.714Z,991.55
2019-02-11T16:11:02.742Z,991.63
2019-02-11T16:12:02.400Z,991.66
2019-02-11T16:13:03.504Z,991.65
2019-02-11T16:14:02.594Z,991.68
2019-02-11T16:15:04.950Z,991.68
2019-02-11T16:16:11.716Z,991.75
2019-02-11T16:17:04.764Z,991.77
2019-02-11T16:18:05.276Z,991.82
2019-02-11T16:19:05.491Z,991.81
2019-02-11T16:20:05.242Z,991.84
2019-02-11T16:21:03.935Z,991.80
2019-02-11T16:22:27.318Z,991.81
2019-02-11T16:23:05.803Z,991.83
2019-02-11T16:24:07.211Z,991.87
2019-02-11T16:25:07.212Z,991.89
2019-02-11T16:26:08.840Z,991.95
2019-02-11T16:27:06.770Z,992.01
2019-02-11T16:28:20.773Z,991.94
2019-02-11T16:29:05.381Z,992.02
2019-02-11T16:30:13.317Z,992.04
2019-02-11T16:31:14.217Z,992.00
2019-02-11T16:32:07.728Z,992.06
2019-02-11T16:33:22.041Z,992.05
2019-02-11T16:34:28.723Z,992.02
2019-02-11T16:35:06.304Z,992.05
2019-02-11T16:36:07.691Z,992.01
2019-02-11T16:37:08.306Z,992.04
2019-02-11T16:38:10.511Z,992.09
2019-02-11T16:39:08.113Z,992.12
2019-02-11T16:40:08.801Z,992.17
2019-02-11T16:41:11.267Z,992.22
2019-02-11T16:42:07.591Z,992.29
2019-02-11T16:43:10.781Z,992.36
2019-02-11T16:44:11.819Z,992.39
2019-02-11T16:45:08.220Z,992.39
2019-02-11T16:46:11.221Z,992.47
2019-02-11T16:47:08.585Z,992.56
2019-02-11T16:48:09.768Z,992.60
2019-02-11T16:49:10.743Z,992.57
2019-02-11T16:50:24.773Z,992.61
2019-02-11T16:51:09.224Z,992.65
2019-02-11T16:52:10.251Z,992.65
2019-02-11T16:53:11.275Z,992.63
2019-02-11T16:54:14.721Z,992.68
2019-02-11T16:55:13.863Z,992.70
2019-02-11T16:56:11.787Z,992.71
2019-02-11T16:57:11.421Z,992.76
2019-02-11T16:58:12.600Z,992.81
2019-02-11T16:59:11.224Z,992.86
2019-02-11T17:00:14.783Z,992.90
2019-02-11T17:01:15.894Z,992.92
2019-02-11T17:02:13.485Z,992.97
2019-02-11T17:03:13.410Z,993.00
2019-02-11T17:04:17.304Z,993.02
2019-02-11T17:05:16.257Z,993.06
2019-02-11T17:06:15.765Z,993.13
2019-02-11T17:07:14.074Z,993.19
2019-02-11T17:08:12.293Z,993.19
2019-02-11T17:09:15.336Z,993.23
2019-02-11T17:10:14.747Z,993.29
2019-02-11T17:11:13.368Z,993.31
2019-02-11T17:12:13.892Z,993.31
2019-02-11T17:13:28.758Z,993.28
2019-02-11T17:14:17.266Z,993.34
2019-02-11T17:15:16.211Z,993.44
2019-02-11T17:16:20.410Z,993.42
2019-02-11T17:17:21.776Z,993.46
2019-02-11T17:18:16.765Z,993.47
2019-02-11T17:19:29.777Z,993.46
2019-02-11T17:20:14.253Z,993.58
2019-02-11T17:21:15.237Z,993.61
2019-02-11T17:22:14.569Z,993.58
2019-02-11T17:23:31.256Z,993.60
2019-02-11T17:24:25.248Z,993.67
2019-02-11T17:25:15.083Z,993.70
2019-02-11T17:26:39.722Z,993.76
2019-02-11T17:27:17.279Z,993.79
2019-02-11T17:28:17.275Z,993.80
2019-02-11T17:29:17.276Z,993.83
2019-02-11T17:30:19.758Z,993.82
2019-02-11T17:31:39.730Z,993.84
2019-02-11T17:32:18.259Z,993.89
2019-02-11T17:33:19.219Z,993.92
2019-02-11T17:34:20.290Z,993.95
2019-02-11T17:35:16.674Z,993.99
2019-02-11T17:36:18.771Z,994.02
2019-02-11T17:37:20.223Z,994.07
2019-02-11T17:38:20.768Z,994.05
2019-02-11T17:39:19.024Z,994.10
2019-02-11T17:40:18.226Z,994.14
2019-02-11T17:41:19.219Z,994.13
2019-02-11T17:42:18.639Z,994.21
2019-02-11T17:43:25.765Z,994.18
2019-02-11T17:44:19.763Z,994.20
2019-02-11T17:45:21.273Z,994.23
2019-02-11T17:46:20.328Z,994.22
2019-02-11T17:47:20.261Z,994.26
2019-02-11T17:48:18.961Z,994.25
2019-02-11T17:49:23.087Z,994.28
2019-02-11T17:50:26.289Z,994.33
2019-02-11T17:51:21.330Z,994.34
2019-02-11T17:52:27.225Z,994.32
2019-02-11T17:53:27.761Z,994.39
2019-02-11T17:54:26.771Z,994.39
2019-02-11T17:55:27.782Z,994.40
2019-02-11T17:56:24.719Z,994.44
2019-02-11T17:57:24.271Z,994.43
2019-02-11T17:58:21.206Z,994.47
2019-02-11T17:59:22.791Z,994.46
2019-02-11T18:00:22.344Z,994.52
2019-02-11T18:01:43.826Z,994.57
2019-02-11T18:02:26.044Z,994.61
2019-02-11T18:03:23.728Z,994.62
2019-02-11T18:04:25.547Z,994.63
2019-02-11T18:07:10.445Z,994.72
2019-02-11T18:08:17.425Z,994.71
2019-02-11T18:08:55.518Z,994.73
2019-02-11T18:10:00.917Z,994.75
2019-02-11T18:10:55.914Z,994.80
2019-02-11T18:11:59.003Z,994.81
2019-02-11T18:13:10.467Z,994.87
2019-02-11T18:13:54.848Z,994.95
2019-02-11T18:14:59.897Z,994.92
2019-02-11T18:15:56.965Z,994.96
2019-02-11T18:16:56.979Z,994.96
2019-02-11T18:17:58.951Z,995.09
2019-02-11T18:18:56.261Z,995.05
2019-02-11T18:19:57.703Z,995.11
2019-02-11T18:20:57.490Z,995.16
2019-02-11T18:21:56.086Z,995.20
2019-02-11T18:23:02.959Z,995.25
2019-02-11T18:23:57.959Z,995.22
2019-02-11T18:25:04.454Z,995.30
2019-02-11T18:26:19.411Z,995.28
2019-02-11T18:26:59.911Z,995.35
2019-02-11T18:27:57.150Z,995.43
2019-02-11T18:28:59.943Z,995.40
2019-02-11T18:30:00.445Z,995.49
2019-02-11T18:30:57.771Z,995.47
2019-02-11T18:32:00.408Z,995.50
2019-02-11T18:32:59.139Z,995.50
2019-02-11T18:34:01.957Z,995.50
2019-02-11T18:35:00.474Z,995.56
2019-02-11T18:36:00.462Z,995.57
2019-02-11T18:37:00.459Z,995.54
2019-02-11T18:38:00.903Z,995.60
2019-02-11T18:39:02.969Z,995.64
2019-02-11T18:40:02.405Z,995.67
2019-02-11T18:41:07.925Z,995.67
2019-02-11T18:42:00.578Z,995.68
2019-02-11T18:43:08.305Z,995.71
2019-02-11T18:44:03.473Z,995.79
2019-02-11T18:45:00.029Z,995.80
2019-02-11T18:46:04.845Z,995.80
2019-02-11T18:47:04.905Z,995.83
2019-02-11T18:48:02.483Z,995.89
2019-02-11T18:49:00.813Z,995.81
2019-02-11T18:50:06.263Z,995.87
2019-02-11T18:51:03.013Z,995.86
2019-02-11T18:52:03.427Z,995.91
2019-02-11T18:53:08.463Z,995.86
2019-02-11T18:54:01.789Z,995.88
2019-02-11T18:55:02.009Z,995.91
2019-02-11T18:56:06.996Z,995.87
2019-02-11T18:57:17.964Z,995.89
2019-02-11T18:58:03.965Z,995.97
2019-02-11T18:59:02.650Z,995.96
2019-02-11T19:00:04.465Z,996.00